UWSG 232000Z 31002MPS CAVOK 06/M01 Q1005 R26/CLRD70 NOSIG RMK QFE751/1002
QNH:(hPa/inHg/mmHg)1005 / 29.68 / 754
QFE:(hPa/inHg/mmHg)1004 / 29.64 / 753
Temperature6
Dew Point-1
Visibility> 10000
WeatherCAVOK
Cloud Cover
Transition Altitude3000 ft.
Transition LevelFL50
SQUAWK